Time;durP1;ratioP1;P1;durP2;ratioP2;P2;SDS_P1;SDS_P2;PMS_P1;PMS_P2;Temp;Humidity;BMP_temperature;BMP_pressure;BME280_temperature;BME280_humidity;BME280_pressure;Samples;Min_cycle;Max_cycle;Signal;HPM_P1;HPM_P2
2021/05/29 00:00:44;;;;;;;;;;;9.20;99.90;;;;;;5029162;28;19999;-54
2021/05/29 00:03:10;;;;;;;;;;;9.30;99.90;;;;;;5029512;28;19909;-55
2021/05/29 00:05:35;;;;;;;;;;;9.20;99.90;;;;;;5026041;28;19917;-54
2021/05/29 00:08:01;;;;;;;;;;;9.20;99.90;;;;;;5023917;28;21234;-53
2021/05/29 00:10:26;;;;;;;;;;;9.20;99.90;;;;;;5023655;28;19944;-55
2021/05/29 00:12:52;;;;;;;;;;;9.20;99.90;;;;;;5022205;28;20303;-54
2021/05/29 00:15:17;;;;;;;;;;;9.10;99.90;;;;;;5026352;28;20007;-53
2021/05/29 00:17:43;;;;;;;;;;;9.10;99.90;;;;;;5026658;28;19920;-55
2021/05/29 00:20:09;;;;;;;;;;;9.10;99.90;;;;;;5027448;28;19943;-53
2021/05/29 00:22:34;;;;;;;;;;;9.10;99.90;;;;;;5022960;28;19913;-54
2021/05/29 00:25:00;;;;;;;;;;;9.00;99.90;;;;;;5026104;28;19962;-53
2021/05/29 00:27:25;;;;;;;;;;;9.10;99.90;;;;;;5027711;28;19913;-55
2021/05/29 00:29:51;;;;;;;;;;;9.20;99.90;;;;;;5027973;28;20386;-53
2021/05/29 00:32:16;;;;;;;;;;;9.20;99.90;;;;;;5027909;28;19921;-55
2021/05/29 00:34:42;;;;;;;;;;;9.10;99.90;;;;;;5028004;28;19909;-54
2021/05/29 00:37:07;;;;;;;;;;;9.10;99.90;;;;;;5027676;28;19924;-53
2021/05/29 00:39:33;;;;;;;;;;;9.10;99.90;;;;;;5027558;28;20228;-54
2021/05/29 00:41:58;;;;;;;;;;;9.10;99.90;;;;;;5027629;28;19919;-54
2021/05/29 00:44:24;;;;;;;;;;;9.10;99.90;;;;;;5027793;28;19909;-55
2021/05/29 00:46:49;;;;;;;;;;;9.10;99.90;;;;;;5027911;28;20021;-53
2021/05/29 00:49:14;;;;;;;;;;;9.00;99.90;;;;;;5027407;28;19916;-55
2021/05/29 00:51:40;;;;;;;;;;;9.00;99.90;;;;;;5027487;28;19963;-53
2021/05/29 00:54:06;;;;;;;;;;;9.00;99.90;;;;;;5027851;28;19909;-56
2021/05/29 00:56:31;;;;;;;;;;;9.00;99.90;;;;;;5027861;28;19919;-54
2021/05/29 00:58:57;;;;;;;;;;;9.10;99.90;;;;;;5027785;28;19913;-53
2021/05/29 01:01:22;;;;;;;;;;;9.10;99.90;;;;;;5027696;28;19917;-53
2021/05/29 01:03:48;;;;;;;;;;;9.10;99.90;;;;;;5028454;28;19948;-55
2021/05/29 01:06:13;;;;;;;;;;;9.10;99.90;;;;;;5027948;28;19913;-54
2021/05/29 01:08:39;;;;;;;;;;;9.10;99.90;;;;;;5027608;28;19945;-54
2021/05/29 01:11:07;;;;;;;;;;;9.10;99.90;;;;;;5022867;28;20323;-52
2021/05/29 01:13:34;;;;;;;;;;;9.10;99.90;;;;;;5027619;28;20075;-52
2021/05/29 01:18:51;;;;;;;;;;;9.10;99.90;;;;;;5020329;28;19924;-53
2021/05/29 01:21:16;;;;;;;;;;;9.10;99.90;;;;;;5024792;28;19913;-53
2021/05/29 01:23:42;;;;;;;;;;;9.00;99.90;;;;;;5028165;28;20060;-55
2021/05/29 01:26:07;;;;;;;;;;;9.00;99.90;;;;;;5027412;28;20326;-56
2021/05/29 01:28:33;;;;;;;;;;;9.00;99.90;;;;;;5028024;28;19914;-55
2021/05/29 01:31:03;;;;;;;;;;;9.00;99.90;;;;;;5030796;28;19917;-53
2021/05/29 01:33:33;;;;;;;;;;;8.90;99.90;;;;;;5031926;28;20269;-58
2021/05/29 01:35:59;;;;;;;;;;;8.90;99.90;;;;;;5031336;28;20627;-55
2021/05/29 01:38:25;;;;;;;;;;;9.00;99.90;;;;;;5031687;28;19913;-55
2021/05/29 01:40:51;;;;;;;;;;;9.00;99.90;;;;;;5031522;28;19932;-53
2021/05/29 01:43:16;;;;;;;;;;;9.00;99.90;;;;;;5030566;28;19964;-57
2021/05/29 01:45:42;;;;;;;;;;;9.00;99.90;;;;;;5032090;28;19996;-57
2021/05/29 01:48:09;;;;;;;;;;;9.00;99.90;;;;;;5031061;28;19927;-53
2021/05/29 01:50:45;;;;;;;;;;;8.90;99.90;;;;;;5031043;28;20007;-57
2021/05/29 01:53:11;;;;;;;;;;;8.90;99.90;;;;;;5034849;28;19913;-53
2021/05/29 01:55:37;;;;;;;;;;;9.00;99.90;;;;;;5031281;28;19924;-53
2021/05/29 01:58:03;;;;;;;;;;;9.00;99.90;;;;;;5027094;28;19917;-56
2021/05/29 02:00:28;;;;;;;;;;;9.00;99.90;;;;;;5014654;28;19959;-54
2021/05/29 02:02:57;;;;;;;;;;;9.10;99.90;;;;;;5013602;28;19909;-53
2021/05/29 02:05:24;;;;;;;;;;;9.10;99.90;;;;;;5021663;28;20354;-53
2021/05/29 02:07:51;;;;;;;;;;;9.10;99.90;;;;;;5023351;28;19921;-55
2021/05/29 02:10:23;;;;;;;;;;;9.10;99.90;;;;;;5028713;28;19945;-54
2021/05/29 02:12:51;;;;;;;;;;;9.10;99.90;;;;;;5030288;28;20008;-53
2021/05/29 02:15:18;;;;;;;;;;;9.00;99.90;;;;;;5030830;28;19913;-54
2021/05/29 02:17:45;;;;;;;;;;;9.00;99.90;;;;;;5030910;28;19913;-53
2021/05/29 02:20:11;;;;;;;;;;;8.90;99.90;;;;;;5030998;28;19909;-55
2021/05/29 02:22:37;;;;;;;;;;;8.80;99.90;;;;;;5028770;28;20008;-54
2021/05/29 02:25:05;;;;;;;;;;;8.80;99.90;;;;;;5027721;28;19913;-56
2021/05/29 02:27:30;;;;;;;;;;;8.80;99.90;;;;;;5025590;28;20000;-53
2021/05/29 02:29:56;;;;;;;;;;;8.80;99.90;;;;;;5030291;28;20170;-54
2021/05/29 02:32:22;;;;;;;;;;;8.80;99.90;;;;;;5030548;28;19909;-53
2021/05/29 02:34:47;;;;;;;;;;;8.80;99.90;;;;;;5030365;28;19917;-53
2021/05/29 02:37:13;;;;;;;;;;;8.80;99.90;;;;;;5030441;28;19928;-55
2021/05/29 02:39:38;;;;;;;;;;;8.80;99.90;;;;;;5046633;22;20051;-45
2021/05/29 02:42:04;;;;;;;;;;;8.80;99.90;;;;;;5026212;28;19932;-43
2021/05/29 02:44:29;;;;;;;;;;;8.80;99.90;;;;;;5030098;28;19974;-47
2021/05/29 02:46:55;;;;;;;;;;;8.80;99.90;;;;;;5029748;28;20306;-44
2021/05/29 02:49:20;;;;;;;;;;;8.80;99.90;;;;;;5012788;28;19909;-45
2021/05/29 02:51:49;;;;;;;;;;;8.80;99.90;;;;;;5008686;28;19913;-44
2021/05/29 02:54:15;;;;;;;;;;;8.80;99.90;;;;;;5009688;28;20276;-45
2021/05/29 02:56:40;;;;;;;;;;;8.80;99.90;;;;;;5006761;28;19920;-45
2021/05/29 02:59:06;;;;;;;;;;;8.80;99.90;;;;;;5002131;28;20016;-47
2021/05/29 03:01:31;;;;;;;;;;;8.80;99.90;;;;;;5007492;28;19916;-46
2021/05/29 03:03:57;;;;;;;;;;;8.80;99.90;;;;;;5009563;28;19931;-45
2021/05/29 03:06:22;;;;;;;;;;;8.70;99.90;;;;;;5010009;28;19921;-42
2021/05/29 03:08:48;;;;;;;;;;;8.70;99.90;;;;;;5009139;28;20012;-43
2021/05/29 03:11:14;;;;;;;;;;;8.70;99.90;;;;;;5008075;28;20068;-44
2021/05/29 03:13:39;;;;;;;;;;;8.70;99.90;;;;;;5009585;28;20043;-44
2021/05/29 03:16:05;;;;;;;;;;;8.70;99.90;;;;;;5009286;28;19918;-44
2021/05/29 03:18:31;;;;;;;;;;;8.70;99.90;;;;;;5010399;28;19949;-41
2021/05/29 03:20:57;;;;;;;;;;;8.70;99.90;;;;;;5009515;28;19909;-43
2021/05/29 03:23:24;;;;;;;;;;;8.60;99.90;;;;;;5009030;28;20163;-41
2021/05/29 03:25:49;;;;;;;;;;;8.60;99.90;;;;;;5007333;28;20012;-44
2021/05/29 03:28:15;;;;;;;;;;;8.60;99.90;;;;;;5009123;28;20012;-43
2021/05/29 03:30:42;;;;;;;;;;;8.60;99.90;;;;;;5009287;28;19959;-42
2021/05/29 03:33:07;;;;;;;;;;;8.60;99.90;;;;;;5008724;28;19936;-43
2021/05/29 03:35:33;;;;;;;;;;;8.70;99.90;;;;;;5009038;28;19917;-42
2021/05/29 03:37:59;;;;;;;;;;;8.70;99.90;;;;;;5005882;28;20407;-43
2021/05/29 03:40:24;;;;;;;;;;;8.70;99.90;;;;;;5008582;28;20177;-43
2021/05/29 03:42:50;;;;;;;;;;;8.70;99.90;;;;;;5007297;28;19909;-42
2021/05/29 03:45:16;;;;;;;;;;;8.70;99.90;;;;;;5009070;28;19927;-43
2021/05/29 03:47:43;;;;;;;;;;;8.70;99.90;;;;;;5008637;28;20538;-42
2021/05/29 03:50:09;;;;;;;;;;;8.70;99.90;;;;;;5006970;28;19909;-45
2021/05/29 03:52:35;;;;;;;;;;;8.80;99.90;;;;;;5008751;28;20473;-44
2021/05/29 03:55:00;;;;;;;;;;;8.80;99.90;;;;;;5009147;28;19953;-47
2021/05/29 03:57:26;;;;;;;;;;;8.80;99.90;;;;;;5008774;28;19963;-47
2021/05/29 03:59:51;;;;;;;;;;;8.80;99.90;;;;;;5016019;28;19909;-45
2021/05/29 04:02:17;;;;;;;;;;;8.80;99.90;;;;;;5008402;28;19961;-45
2021/05/29 04:04:42;;;;;;;;;;;8.90;99.90;;;;;;5008567;28;20007;-42
2021/05/29 04:07:08;;;;;;;;;;;8.90;99.90;;;;;;5006362;28;19913;-43
2021/05/29 04:09:33;;;;;;;;;;;8.90;99.90;;;;;;5007820;28;19935;-43
2021/05/29 04:11:59;;;;;;;;;;;8.90;99.90;;;;;;5008408;28;20000;-45
2021/05/29 04:14:24;;;;;;;;;;;8.90;99.90;;;;;;5008566;28;19914;-43
2021/05/29 04:16:50;;;;;;;;;;;8.80;99.90;;;;;;5008676;28;19909;-47
2021/05/29 04:19:15;;;;;;;;;;;8.80;99.90;;;;;;5008757;28;19956;-41
2021/05/29 04:21:41;;;;;;;;;;;8.80;99.90;;;;;;5007990;28;20467;-45
2021/05/29 04:24:06;;;;;;;;;;;8.80;99.90;;;;;;5008000;28;19920;-42
2021/05/29 04:26:32;;;;;;;;;;;8.80;99.90;;;;;;5007596;28;19960;-43
2021/05/29 04:28:57;;;;;;;;;;;8.80;99.90;;;;;;5008229;28;19916;-43
2021/05/29 04:31:23;;;;;;;;;;;8.80;99.90;;;;;;5007840;28;19913;-43
2021/05/29 04:33:48;;;;;;;;;;;8.90;99.90;;;;;;5008821;28;20415;-42
2021/05/29 04:36:14;;;;;;;;;;;8.90;99.90;;;;;;5008771;28;19909;-43
2021/05/29 04:38:39;;;;;;;;;;;8.80;99.90;;;;;;5008033;28;19909;-41
2021/05/29 04:41:05;;;;;;;;;;;8.80;99.90;;;;;;5008318;28;19918;-42
2021/05/29 04:43:30;;;;;;;;;;;8.80;99.90;;;;;;5008241;28;19920;-44
2021/05/29 04:45:56;;;;;;;;;;;8.80;99.90;;;;;;5008502;28;19917;-42
2021/05/29 04:48:21;;;;;;;;;;;8.80;99.90;;;;;;5008226;28;20464;-42
2021/05/29 04:53:31;;;;;;;;;;;8.80;99.90;;;;;;5008944;28;19916;-42
2021/05/29 04:55:58;;;;;;;;;;;8.80;99.90;;;;;;5008388;28;19910;-44
2021/05/29 04:58:23;;;;;;;;;;;8.80;99.90;;;;;;5008479;28;19917;-42
2021/05/29 05:00:49;;;;;;;;;;;8.70;99.90;;;;;;5008444;28;19909;-42
2021/05/29 05:03:15;;;;;;;;;;;8.70;99.90;;;;;;5008078;28;19990;-46
2021/05/29 05:05:40;;;;;;;;;;;8.70;99.90;;;;;;5010928;28;19909;-43
2021/05/29 05:08:06;;;;;;;;;;;8.70;99.90;;;;;;5012189;28;19909;-43
2021/05/29 05:10:34;;;;;;;;;;;8.70;99.90;;;;;;5011198;28;19940;-44
2021/05/29 05:13:00;;;;;;;;;;;8.70;99.90;;;;;;5012285;28;19986;-43
2021/05/29 05:15:25;;;;;;;;;;;8.70;99.90;;;;;;5012317;28;19909;-41
2021/05/29 05:17:51;;;;;;;;;;;8.70;99.90;;;;;;5020075;28;19936;-43
2021/05/29 05:20:19;;;;;;;;;;;8.80;99.90;;;;;;5013898;28;19984;-43
2021/05/29 05:22:45;;;;;;;;;;;8.80;99.90;;;;;;5011689;28;19909;-42
2021/05/29 05:25:11;;;;;;;;;;;8.80;99.90;;;;;;5010900;28;19909;-43
2021/05/29 05:27:37;;;;;;;;;;;8.90;99.90;;;;;;5012043;28;20038;-42
2021/05/29 05:30:04;;;;;;;;;;;8.90;99.90;;;;;;5011748;28;19913;-43
2021/05/29 05:32:29;;;;;;;;;;;8.90;99.90;;;;;;5011726;28;19957;-41
2021/05/29 05:34:55;;;;;;;;;;;8.90;99.90;;;;;;5011848;28;20413;-43
2021/05/29 05:37:20;;;;;;;;;;;8.90;99.90;;;;;;5011764;28;19914;-42
2021/05/29 05:39:46;;;;;;;;;;;8.80;99.90;;;;;;5010804;28;19921;-44
2021/05/29 05:42:11;;;;;;;;;;;8.80;99.90;;;;;;5011350;28;19920;-43
2021/05/29 05:44:37;;;;;;;;;;;8.80;99.90;;;;;;5010255;28;20194;-43
2021/05/29 05:47:02;;;;;;;;;;;8.90;99.90;;;;;;5011709;28;19917;-43
2021/05/29 05:49:28;;;;;;;;;;;8.90;99.90;;;;;;5010924;28;19963;-42
2021/05/29 05:51:54;;;;;;;;;;;9.00;99.90;;;;;;5011656;28;19909;-45
2021/05/29 05:54:19;;;;;;;;;;;9.00;99.90;;;;;;5010102;28;19909;-44
2021/05/29 05:56:44;;;;;;;;;;;9.00;99.90;;;;;;5011413;28;19941;-45
2021/05/29 05:59:10;;;;;;;;;;;9.00;99.90;;;;;;5011514;28;20422;-43
2021/05/29 06:01:36;;;;;;;;;;;9.00;99.90;;;;;;5010169;28;19920;-43
2021/05/29 06:04:01;;;;;;;;;;;9.00;99.90;;;;;;5011294;28;19909;-44
2021/05/29 06:06:27;;;;;;;;;;;9.00;99.90;;;;;;5010927;28;19937;-45
2021/05/29 06:08:53;;;;;;;;;;;9.00;99.90;;;;;;5010404;28;19921;-43
2021/05/29 06:11:18;;;;;;;;;;;9.10;99.90;;;;;;5010553;28;19914;-43
2021/05/29 06:21:25;;;;;;;;;;;9.30;99.90;;;;;;5010998;28;19910;-44
2021/05/29 06:23:51;;;;;;;;;;;9.30;99.90;;;;;;5010210;28;19979;-44
2021/05/29 06:26:16;;;;;;;;;;;9.30;99.90;;;;;;5009598;28;19940;-42
2021/05/29 06:28:42;;;;;;;;;;;9.30;99.90;;;;;;5011102;28;19916;-43
2021/05/29 06:31:07;;;;;;;;;;;9.30;99.90;;;;;;5011140;28;20287;-43
2021/05/29 06:33:33;;;;;;;;;;;9.40;99.90;;;;;;5008641;28;19945;-43
2021/05/29 06:35:58;;;;;;;;;;;9.40;99.90;;;;;;5011031;28;19920;-43
2021/05/29 06:38:24;;;;;;;;;;;9.40;99.90;;;;;;5010475;28;19949;-44
2021/05/29 06:40:49;;;;;;;;;;;9.50;99.90;;;;;;5009098;28;20307;-42
2021/05/29 06:43:15;;;;;;;;;;;9.60;99.90;;;;;;5009374;28;19909;-42
2021/05/29 06:45:41;;;;;;;;;;;9.70;99.90;;;;;;5009111;28;19918;-42
2021/05/29 06:48:09;;;;;;;;;;;9.70;99.90;;;;;;5009370;28;19916;-43
2021/05/29 06:50:34;;;;;;;;;;;9.80;99.90;;;;;;5009088;28;20000;-42
2021/05/29 06:53:01;;;;;;;;;;;9.80;99.90;;;;;;5009020;28;20008;-43
2021/05/29 07:00:55;;;;;;;;;;;9.80;99.90;;;;;;5010171;28;19916;-44
2021/05/29 07:03:21;;;;;;;;;;;9.80;99.90;;;;;;5009673;28;19909;-46
2021/05/29 07:05:46;;;;;;;;;;;9.90;99.90;;;;;;5010020;28;19909;-45
2021/05/29 07:08:12;;;;;;;;;;;9.90;99.90;;;;;;5009662;28;19910;-43
2021/05/29 07:10:37;;;;;;;;;;;9.80;99.90;;;;;;5008926;28;19996;-42
2021/05/29 07:13:03;;;;;;;;;;;9.80;99.90;;;;;;5009658;28;19929;-45
2021/05/29 07:15:34;;;;;;;;;;;9.90;99.90;;;;;;5010242;28;20012;-46
2021/05/29 07:18:05;;;;;;;;;;;9.90;99.90;;;;;;5022953;28;19967;-42
2021/05/29 07:20:32;;;;;;;;;;;10.00;99.90;;;;;;5010508;28;19913;-43
2021/05/29 07:22:58;;;;;;;;;;;10.00;99.90;;;;;;5009859;28;19910;-44
2021/05/29 07:25:23;;;;;;;;;;;10.00;99.90;;;;;;5009006;28;19917;-42
2021/05/29 07:27:49;;;;;;;;;;;10.20;99.90;;;;;;5007985;28;19914;-42
2021/05/29 07:30:14;;;;;;;;;;;10.30;99.90;;;;;;5009569;28;19916;-43
2021/05/29 07:32:40;;;;;;;;;;;10.40;99.90;;;;;;5010097;28;20391;-43
2021/05/29 07:35:05;;;;;;;;;;;10.40;99.90;;;;;;5009895;28;19916;-44
2021/05/29 07:37:31;;;;;;;;;;;10.40;99.90;;;;;;5008281;28;19921;-44
2021/05/29 07:39:56;;;;;;;;;;;10.50;99.90;;;;;;5009035;28;20004;-43
2021/05/29 07:42:22;;;;;;;;;;;10.60;99.90;;;;;;5009459;28;20017;-45
2021/05/29 07:44:48;;;;;;;;;;;10.70;99.90;;;;;;5009532;28;19936;-44
2021/05/29 07:47:13;;;;;;;;;;;10.80;99.90;;;;;;5009405;28;19944;-42
2021/05/29 07:49:39;;;;;;;;;;;10.90;99.90;;;;;;5009317;28;19910;-43
2021/05/29 07:52:04;;;;;;;;;;;11.00;99.90;;;;;;5009480;28;20391;-43
2021/05/29 07:54:31;;;;;;;;;;;11.00;99.90;;;;;;5009180;28;20000;-44
2021/05/29 07:56:57;;;;;;;;;;;11.00;99.90;;;;;;5009273;28;20386;-46
2021/05/29 07:59:23;;;;;;;;;;;11.00;99.90;;;;;;5009222;28;19910;-44
2021/05/29 08:01:48;;;;;;;;;;;11.00;99.90;;;;;;5008054;28;19917;-47
2021/05/29 08:04:16;;;;;;;;;;;11.10;99.90;;;;;;5009726;28;19909;-43
2021/05/29 08:06:41;;;;;;;;;;;11.10;99.90;;;;;;5009278;28;19967;-42
2021/05/29 08:09:07;;;;;;;;;;;11.20;99.90;;;;;;5009069;28;19914;-44
2021/05/29 08:11:36;;;;;;;;;;;11.20;99.90;;;;;;5008344;28;19913;-43
2021/05/29 08:14:02;;;;;;;;;;;11.30;99.90;;;;;;5009507;28;19917;-44
2021/05/29 08:16:29;;;;;;;;;;;11.40;99.90;;;;;;5009125;28;20288;-43
2021/05/29 08:18:54;;;;;;;;;;;11.40;99.90;;;;;;5019492;28;19909;-45
2021/05/29 08:21:21;;;;;;;;;;;11.40;99.90;;;;;;5008951;28;20392;-43
2021/05/29 08:23:46;;;;;;;;;;;11.40;99.90;;;;;;5008847;28;20265;-43
2021/05/29 08:26:12;;;;;;;;;;;11.50;99.90;;;;;;5008877;28;19914;-44
2021/05/29 08:28:37;;;;;;;;;;;11.70;99.90;;;;;;5008844;28;19914;-43
2021/05/29 08:31:03;;;;;;;;;;;11.90;99.90;;;;;;5009389;28;19949;-43
2021/05/29 08:33:29;;;;;;;;;;;12.00;99.90;;;;;;5009050;28;19909;-46
2021/05/29 08:35:55;;;;;;;;;;;11.90;99.90;;;;;;5009552;28;20307;-44
2021/05/29 08:38:20;;;;;;;;;;;11.90;99.90;;;;;;5009838;28;19973;-45
2021/05/29 08:40:46;;;;;;;;;;;12.10;99.90;;;;;;5013185;28;19923;-45
2021/05/29 08:43:11;;;;;;;;;;;12.30;99.90;;;;;;5012698;28;19961;-44
2021/05/29 08:45:38;;;;;;;;;;;12.40;99.90;;;;;;5012694;28;19910;-47
2021/05/29 08:48:04;;;;;;;;;;;12.40;99.90;;;;;;5012648;28;19917;-47
2021/05/29 08:50:30;;;;;;;;;;;12.20;99.90;;;;;;5017660;28;20431;-45
2021/05/29 08:52:55;;;;;;;;;;;12.20;99.90;;;;;;5012312;28;19945;-44
2021/05/29 08:55:21;;;;;;;;;;;11.90;99.90;;;;;;5012366;28;19913;-44
2021/05/29 08:57:49;;;;;;;;;;;12.00;99.90;;;;;;5012260;28;20008;-43
2021/05/29 09:00:27;;;;;;;;;;;12.00;99.90;;;;;;5011177;28;20287;-44
2021/05/29 09:02:55;;;;;;;;;;;12.00;99.90;;;;;;5012310;28;19921;-48
2021/05/29 09:05:31;;;;;;;;;;;12.10;99.90;;;;;;5012228;28;19909;-44
2021/05/29 09:08:00;;;;;;;;;;;12.00;99.90;;;;;;5012790;28;19913;-44
2021/05/29 09:10:26;;;;;;;;;;;12.20;99.90;;;;;;5012596;28;19910;-47
2021/05/29 09:13:05;;;;;;;;;;;12.50;99.90;;;;;;5011490;28;19916;-45
2021/05/29 09:15:42;;;;;;;;;;;12.30;99.90;;;;;;5006380;28;19909;-50
2021/05/29 09:18:21;;;;;;;;;;;12.20;99.90;;;;;;5015937;28;20004;-46
2021/05/29 09:20:47;;;;;;;;;;;12.30;99.90;;;;;;5012242;28;19910;-46
2021/05/29 09:23:12;;;;;;;;;;;12.60;99.90;;;;;;5012373;28;20641;-49
2021/05/29 09:25:49;;;;;;;;;;;12.80;99.90;;;;;;5012525;28;19963;-44
2021/05/29 09:28:21;;;;;;;;;;;13.10;99.90;;;;;;5012666;28;19936;-48
2021/05/29 09:30:48;;;;;;;;;;;13.40;99.90;;;;;;5005980;28;19916;-45
2021/05/29 09:33:20;;;;;;;;;;;13.60;99.90;;;;;;5012547;28;20380;-46
2021/05/29 09:35:54;;;;;;;;;;;13.70;99.90;;;;;;5012221;28;20146;-48
2021/05/29 09:38:20;;;;;;;;;;;13.80;99.90;;;;;;5012455;28;19909;-45
2021/05/29 09:40:53;;;;;;;;;;;13.80;99.90;;;;;;5011863;28;19963;-45
2021/05/29 09:43:19;;;;;;;;;;;14.00;99.90;;;;;;5011946;28;20004;-47
2021/05/29 09:45:44;;;;;;;;;;;14.00;99.90;;;;;;5012142;28;20056;-45
2021/05/29 09:48:11;;;;;;;;;;;14.10;99.90;;;;;;5011871;28;19975;-45
2021/05/29 09:50:37;;;;;;;;;;;14.20;99.90;;;;;;5011293;28;20403;-46
2021/05/29 09:53:02;;;;;;;;;;;14.00;99.90;;;;;;5011596;28;19909;-48
2021/05/29 09:55:35;;;;;;;;;;;14.00;99.90;;;;;;5012103;28;20351;-49
2021/05/29 09:58:01;;;;;;;;;;;14.10;99.90;;;;;;5011768;28;19910;-49
2021/05/29 10:00:39;;;;;;;;;;;14.50;99.90;;;;;;5010083;28;19921;-46
2021/05/29 10:03:05;;;;;;;;;;;14.60;99.90;;;;;;5011250;28;19972;-46
2021/05/29 10:05:35;;;;;;;;;;;14.50;99.90;;;;;;5011492;28;20307;-45
2021/05/29 10:08:01;;;;;;;;;;;14.80;99.90;;;;;;5010539;28;20009;-47
2021/05/29 10:10:27;;;;;;;;;;;15.00;99.90;;;;;;5008945;28;20671;-48
2021/05/29 10:12:52;;;;;;;;;;;15.20;99.90;;;;;;5011020;28;19909;-46
2021/05/29 10:15:18;;;;;;;;;;;15.10;99.90;;;;;;5010713;28;20051;-47
2021/05/29 10:17:47;;;;;;;;;;;14.90;99.90;;;;;;5011525;28;19910;-46
2021/05/29 10:20:14;;;;;;;;;;;14.90;99.90;;;;;;5024126;28;19914;-47
2021/05/29 10:22:40;;;;;;;;;;;15.10;99.90;;;;;;5010638;28;21343;-43
2021/05/29 10:25:10;;;;;;;;;;;15.30;99.90;;;;;;5009988;28;19909;-45
2021/05/29 10:27:36;;;;;;;;;;;15.10;99.90;;;;;;5010312;28;19913;-46
2021/05/29 10:30:02;;;;;;;;;;;15.20;99.90;;;;;;5010336;28;20336;-46
2021/05/29 10:32:27;;;;;;;;;;;15.40;99.90;;;;;;5010428;28;19945;-44
2021/05/29 10:35:06;;;;;;;;;;;15.60;99.90;;;;;;5010446;28;19913;-45
2021/05/29 10:37:32;;;;;;;;;;;15.70;99.90;;;;;;5010019;28;19994;-44
2021/05/29 10:40:16;;;;;;;;;;;15.70;99.90;;;;;;5010061;28;19917;-48
2021/05/29 10:42:41;;;;;;;;;;;15.50;99.90;;;;;;5009520;28;20395;-45
2021/05/29 10:45:13;;;;;;;;;;;15.40;99.90;;;;;;5010190;28;19913;-43
2021/05/29 10:47:58;;;;;;;;;;;15.00;99.90;;;;;;5009544;28;19913;-47
2021/05/29 10:50:44;;;;;;;;;;;15.20;99.90;;;;;;5009233;28;19914;-44
2021/05/29 10:53:10;;;;;;;;;;;15.30;99.90;;;;;;5010088;28;19917;-45
2021/05/29 10:55:35;;;;;;;;;;;15.30;99.90;;;;;;5010459;28;19913;-47
2021/05/29 10:58:06;;;;;;;;;;;15.20;99.90;;;;;;5008557;28;19913;-47
2021/05/29 11:00:41;;;;;;;;;;;15.50;99.90;;;;;;5008834;28;20357;-44
2021/05/29 11:03:16;;;;;;;;;;;15.40;99.90;;;;;;5009207;28;20561;-45
2021/05/29 11:05:45;;;;;;;;;;;15.70;99.90;;;;;;5010574;28;20439;-44
2021/05/29 11:08:29;;;;;;;;;;;16.20;99.90;;;;;;5010664;28;19914;-46
2021/05/29 11:10:54;;;;;;;;;;;16.40;99.90;;;;;;5009924;28;19909;-47
2021/05/29 11:13:40;;;;;;;;;;;16.40;99.90;;;;;;5010282;28;19917;-46
2021/05/29 11:16:05;;;;;;;;;;;16.50;99.90;;;;;;5010480;28;19909;-48
2021/05/29 11:18:31;;;;;;;;;;;16.70;99.90;;;;;;5019634;28;19919;-46
2021/05/29 11:21:04;;;;;;;;;;;16.80;99.90;;;;;;5010107;28;19967;-48
2021/05/29 11:23:29;;;;;;;;;;;16.50;99.90;;;;;;5007898;28;19914;-44
2021/05/29 11:25:55;;;;;;;;;;;16.80;99.90;;;;;;5010248;28;19916;-46
2021/05/29 11:28:21;;;;;;;;;;;17.20;99.90;;;;;;5010364;28;19953;-44
2021/05/29 11:30:47;;;;;;;;;;;17.10;99.90;;;;;;5008255;28;20284;-45
2021/05/29 11:33:12;;;;;;;;;;;17.10;99.90;;;;;;5009587;28;19917;-46
2021/05/29 11:35:43;;;;;;;;;;;16.90;99.90;;;;;;5009146;28;19910;-45
2021/05/29 11:40:40;;;;;;;;;;;16.90;99.90;;;;;;5009353;28;19940;-45
2021/05/29 11:43:05;;;;;;;;;;;17.10;99.90;;;;;;5009843;28;19917;-48
2021/05/29 11:45:31;;;;;;;;;;;16.80;99.90;;;;;;5009089;28;20426;-43
2021/05/29 11:47:56;;;;;;;;;;;16.50;99.90;;;;;;5009366;28;19914;-43
2021/05/29 11:50:22;;;;;;;;;;;16.30;99.90;;;;;;5009513;28;19996;-46
2021/05/29 11:52:47;;;;;;;;;;;16.20;99.90;;;;;;5009337;28;19910;-44
2021/05/29 11:55:14;;;;;;;;;;;15.80;99.90;;;;;;5009494;28;19921;-43
2021/05/29 11:58:03;;;;;;;;;;;15.80;99.90;;;;;;5009545;28;19909;-43
2021/05/29 12:00:29;;;;;;;;;;;16.00;99.90;;;;;;4997902;28;19909;-46
2021/05/29 12:02:54;;;;;;;;;;;16.60;99.90;;;;;;5008872;28;19940;-45
2021/05/29 12:05:20;;;;;;;;;;;16.70;99.90;;;;;;5007876;28;20388;-49
2021/05/29 12:07:59;;;;;;;;;;;16.70;99.90;;;;;;5009216;28;19913;-46
2021/05/29 12:10:25;;;;;;;;;;;16.80;99.90;;;;;;5008320;28;19913;-43
2021/05/29 12:12:51;;;;;;;;;;;17.20;99.90;;;;;;5009199;28;20531;-47
2021/05/29 12:15:16;;;;;;;;;;;17.30;99.90;;;;;;5008422;28;19945;-44
2021/05/29 12:17:45;;;;;;;;;;;17.40;99.90;;;;;;5009214;28;19963;-45
2021/05/29 12:20:11;;;;;;;;;;;17.30;99.90;;;;;;5006840;28;19913;-43
2021/05/29 12:22:36;;;;;;;;;;;17.40;99.90;;;;;;5008457;28;19909;-45
2021/05/29 12:25:04;;;;;;;;;;;17.20;99.90;;;;;;5008014;28;19914;-44
2021/05/29 12:27:31;;;;;;;;;;;17.00;99.90;;;;;;5008639;28;20324;-44
2021/05/29 12:30:03;;;;;;;;;;;16.90;99.90;;;;;;5008656;28;19967;-43
2021/05/29 12:32:32;;;;;;;;;;;16.80;99.90;;;;;;5008598;28;19917;-44
2021/05/29 12:34:58;;;;;;;;;;;16.30;99.90;;;;;;5008700;28;19922;-45
2021/05/29 12:37:28;;;;;;;;;;;16.30;99.90;;;;;;5008552;28;19963;-46
2021/05/29 12:40:03;;;;;;;;;;;16.30;99.90;;;;;;5007367;28;20641;-44
2021/05/29 12:42:30;;;;;;;;;;;16.40;99.90;;;;;;5007430;28;20043;-47
2021/05/29 12:45:15;;;;;;;;;;;16.20;99.90;;;;;;5006966;28;19945;-46
2021/05/29 12:47:50;;;;;;;;;;;15.70;99.90;;;;;;5007808;28;19921;-44
2021/05/29 12:50:15;;;;;;;;;;;15.70;99.90;;;;;;5008523;28;19956;-44
2021/05/29 12:52:41;;;;;;;;;;;15.80;99.90;;;;;;5008456;28;20002;-43
2021/05/29 12:55:15;;;;;;;;;;;16.00;99.90;;;;;;5007500;28;19917;-45
2021/05/29 12:57:42;;;;;;;;;;;16.20;99.90;;;;;;5008638;28;19941;-44
2021/05/29 13:00:27;;;;;;;;;;;16.20;99.90;;;;;;5017052;28;20293;-49
2021/05/29 13:11:08;;;;;;;;;;;16.30;99.90;;;;;;5007784;28;19909;-44
2021/05/29 13:13:52;;;;;;;;;;;16.70;99.90;;;;;;5007080;28;20598;-45
2021/05/29 13:16:18;;;;;;;;;;;16.70;99.90;;;;;;5008130;28;19910;-46
2021/05/29 13:18:58;;;;;;;;;;;17.20;99.90;;;;;;5008522;28;19909;-44
2021/05/29 13:21:24;;;;;;;;;;;17.60;99.90;;;;;;5007992;28;19914;-47
2021/05/29 13:23:49;;;;;;;;;;;17.80;99.90;;;;;;5006548;28;19909;-44
2021/05/29 13:26:15;;;;;;;;;;;18.00;99.90;;;;;;5009583;28;20403;-46
2021/05/29 13:28:41;;;;;;;;;;;18.20;99.90;;;;;;5026138;28;19928;-46
2021/05/29 13:31:06;;;;;;;;;;;18.20;98.00;;;;;;5011767;28;19916;-45
2021/05/29 13:33:32;;;;;;;;;;;17.60;99.90;;;;;;5011636;28;20353;-47
2021/05/29 13:35:58;;;;;;;;;;;17.60;99.20;;;;;;5011576;28;19910;-44
2021/05/29 13:38:23;;;;;;;;;;;17.60;98.80;;;;;;5011635;28;20016;-48
2021/05/29 13:40:49;;;;;;;;;;;17.80;99.90;;;;;;5010852;28;19910;-44
2021/05/29 13:43:14;;;;;;;;;;;17.80;96.90;;;;;;5011691;28;19909;-43
2021/05/29 13:45:40;;;;;;;;;;;17.60;97.60;;;;;;5010571;28;19913;-43
2021/05/29 13:48:07;;;;;;;;;;;17.80;99.10;;;;;;5010867;28;19914;-44
2021/05/29 13:50:32;;;;;;;;;;;17.90;99.90;;;;;;5011125;28;20376;-43
2021/05/29 13:52:58;;;;;;;;;;;18.20;99.90;;;;;;5010994;28;19925;-48
2021/05/29 13:55:24;;;;;;;;;;;18.30;97.00;;;;;;5011120;28;19916;-44
2021/05/29 13:57:50;;;;;;;;;;;18.40;99.60;;;;;;5011608;28;20287;-46
2021/05/29 14:00:17;;;;;;;;;;;18.30;98.50;;;;;;5009592;28;19910;-46
2021/05/29 14:02:42;;;;;;;;;;;18.60;98.20;;;;;;5011195;28;19909;-47
2021/05/29 14:05:08;;;;;;;;;;;18.60;96.20;;;;;;5010454;28;19909;-44
2021/05/29 14:07:34;;;;;;;;;;;18.70;95.80;;;;;;5010845;28;20406;-45
2021/05/29 14:10:00;;;;;;;;;;;18.80;95.80;;;;;;5010376;28;19961;-45
2021/05/29 14:12:25;;;;;;;;;;;18.60;95.80;;;;;;5010839;28;19971;-45
2021/05/29 14:14:52;;;;;;;;;;;18.30;94.80;;;;;;5011033;28;19917;-44
2021/05/29 14:17:18;;;;;;;;;;;18.10;98.00;;;;;;5010375;28;19909;-43
2021/05/29 14:19:43;;;;;;;;;;;17.80;97.30;;;;;;5009337;28;20000;-43
2021/05/29 14:22:09;;;;;;;;;;;17.70;98.40;;;;;;5009236;28;19913;-42
2021/05/29 14:24:34;;;;;;;;;;;17.70;97.80;;;;;;5009818;28;19913;-42
2021/05/29 14:27:00;;;;;;;;;;;17.80;99.00;;;;;;5009632;28;19921;-42
2021/05/29 14:29:26;;;;;;;;;;;17.70;98.30;;;;;;5010227;28;19915;-46
2021/05/29 14:31:52;;;;;;;;;;;17.90;98.80;;;;;;5009628;28;19918;-44
2021/05/29 14:34:18;;;;;;;;;;;18.10;98.20;;;;;;5010255;28;20287;-43
2021/05/29 14:36:43;;;;;;;;;;;18.00;96.00;;;;;;5010211;28;19913;-44
2021/05/29 14:39:10;;;;;;;;;;;18.10;96.10;;;;;;5009109;28;19924;-43
2021/05/29 14:41:36;;;;;;;;;;;18.30;98.10;;;;;;5010042;28;20392;-44
2021/05/29 14:44:02;;;;;;;;;;;18.20;98.70;;;;;;5009728;28;19913;-44
2021/05/29 14:46:27;;;;;;;;;;;18.10;98.00;;;;;;5009405;28;19924;-45
2021/05/29 14:48:52;;;;;;;;;;;17.70;98.50;;;;;;5008672;28;19922;-44
2021/05/29 14:51:19;;;;;;;;;;;17.50;98.60;;;;;;5009333;28;19916;-44